Time;durP1;ratioP1;P1;durP2;ratioP2;P2;SDS_P1;SDS_P2;PMS_P1;PMS_P2;Temp;Humidity;BMP_temperature;BMP_pressure;BME280_temperature;BME280_humidity;BME280_pressure;Samples;Min_cycle;Max_cycle;Signal;HPM_P1;HPM_P2
2021/07/09 00:02:52;;;;;;;;;4.75;4.75;;;;;21.47;50.35;101966.88;5050230;28;45402;-91
2021/07/09 00:05:17;;;;;;;;;6.25;5.00;;;;;21.48;51.03;101974.84;5045478;28;45352;-91
2021/07/09 00:07:43;;;;;;;;;6.75;6.75;;;;;21.47;50.98;101978.34;5039491;28;45607;-90
2021/07/09 00:10:09;;;;;;;;;6.00;6.00;;;;;21.45;51.23;101969.50;5040662;28;46160;-90
2021/07/09 00:12:34;;;;;;;;;7.50;5.75;;;;;21.42;51.07;101965.94;5039725;28;45268;-83
2021/07/09 00:15:00;;;;;;;;;6.00;6.00;;;;;21.42;51.34;101958.91;5040392;28;45364;-91
2021/07/09 00:17:25;;;;;;;;;5.25;4.50;;;;;21.44;51.59;101966.81;5047578;28;45315;-90
2021/07/09 00:19:51;;;;;;;;;7.25;7.00;;;;;21.40;51.41;101963.25;5049129;28;45191;-92
2021/07/09 00:22:17;;;;;;;;;4.25;4.25;;;;;21.42;51.23;101972.06;5039159;28;45407;-90
2021/07/09 00:24:43;;;;;;;;;7.00;6.00;;;;;21.40;51.39;101967.66;5039940;28;45368;-91
2021/07/09 00:27:08;;;;;;;;;3.50;3.50;;;;;21.35;51.26;101970.19;5040185;28;45329;-90
2021/07/09 00:29:34;;;;;;;;;7.00;5.25;;;;;21.30;51.10;101975.38;5040434;28;45824;-88
2021/07/09 00:32:00;;;;;;;;;5.25;4.75;;;;;21.26;51.38;101968.25;5021751;28;45281;-87
2021/07/09 00:34:25;;;;;;;;;5.25;5.25;;;;;21.25;51.78;101969.13;5026029;28;45279;-89
2021/07/09 00:36:51;;;;;;;;;6.00;5.75;;;;;21.22;51.81;101966.41;5046152;28;45246;-90
2021/07/09 00:39:17;;;;;;;;;7.00;6.00;;;;;21.19;51.98;101958.47;5042446;28;45435;-89
2021/07/09 00:41:42;;;;;;;;;8.00;6.00;;;;;21.20;52.34;101962.91;5039233;28;45306;-88
2021/07/09 00:44:08;;;;;;;;;6.00;5.00;;;;;21.18;51.98;101962.84;5039403;28;45411;-89
2021/07/09 00:46:35;;;;;;;;;6.25;6.25;;;;;21.16;52.31;101968.94;5041471;28;45329;-89
2021/07/09 00:49:01;;;;;;;;;5.25;5.25;;;;;21.14;52.59;101965.38;5044150;28;45427;-86
2021/07/09 00:51:27;;;;;;;;;6.75;5.00;;;;;21.09;52.01;101967.06;5051799;28;45632;-87
2021/07/09 00:53:53;;;;;;;;;5.75;5.50;;;;;21.09;52.29;101974.97;5046666;28;45325;-87
2021/07/09 00:56:20;;;;;;;;;6.75;5.00;;;;;;;;5038189;28;45375;-89
2021/07/09 00:58:46;;;;;;;;;8.00;6.00;;;;;21.03;52.59;101981.88;5021338;28;45648;-88
2021/07/09 01:01:12;;;;;;;;;4.25;4.25;;;;;21.02;52.98;101971.31;5040198;28;45334;-89
2021/07/09 01:03:37;;;;;;;;;5.50;4.25;;;;;21.07;52.49;101979.31;5022457;28;45397;-88
2021/07/09 01:06:03;;;;;;;;;5.00;4.00;;;;;21.09;52.70;101982.88;5039908;28;45278;-86
2021/07/09 01:08:29;;;;;;;;;5.75;4.25;;;;;21.06;52.37;101978.41;5037607;28;45928;-88
2021/07/09 01:10:54;;;;;;;;;5.00;5.00;;;;;21.08;52.64;101981.09;5038430;28;45450;-86
2021/07/09 01:13:20;;;;;;;;;7.00;6.50;;;;;21.04;52.35;101980.13;5043320;28;45374;-88
2021/07/09 01:15:45;;;;;;;;;4.75;3.25;;;;;21.05;52.66;101978.38;5047346;28;45409;-87
2021/07/09 01:18:12;;;;;;;;;5.25;4.75;;;;;21.08;52.36;101981.09;5049983;28;45618;-89
2021/07/09 01:20:37;;;;;;;;;7.25;6.00;;;;;21.04;52.12;101982.78;5050800;28;45198;-88
2021/07/09 01:23:03;;;;;;;;;6.00;5.50;;;;;21.03;52.86;101973.97;5042110;28;45367;-89
2021/07/09 01:25:30;;;;;;;;;5.25;5.00;;;;;21.03;52.50;101976.59;5038827;28;44750;-90
2021/07/09 01:28:04;;;;;;;;;5.50;4.50;;;;;21.01;52.94;101974.81;5037344;28;45292;-89
2021/07/09 01:30:30;;;;;;;;;6.25;5.00;;;;;20.96;52.88;101971.16;5038430;28;45198;-88
2021/07/09 01:32:56;;;;;;;;;5.25;4.75;;;;;20.94;52.55;101975.53;5037806;28;45317;-89
2021/07/09 01:35:25;;;;;;;;;6.00;5.75;;;;;20.91;52.70;101983.38;5037848;28;45480;-87
2021/07/09 01:38:06;;;;;;;;;6.00;6.00;;;;;20.91;53.12;101986.88;5037946;28;46198;-89
2021/07/09 01:40:34;;;;;;;;;7.00;5.50;;;;;20.89;52.94;101991.25;5046823;28;45352;-86
2021/07/09 01:43:00;;;;;;;;;6.50;5.75;;;;;20.88;52.90;101985.06;5052716;28;45358;-88
2021/07/09 01:45:26;;;;;;;;;7.25;5.00;;;;;20.85;53.00;101985.00;5041257;28;45343;-89
2021/07/09 01:47:53;;;;;;;;;4.00;4.00;;;;;20.82;53.37;101990.22;5037405;28;46290;-88
2021/07/09 01:50:19;;;;;;;;;5.00;4.00;;;;;20.79;53.56;101986.63;5038775;28;45604;-88
2021/07/09 01:52:45;;;;;;;;;6.25;6.25;;;;;20.77;53.09;101983.09;5038158;28;45290;-89
2021/07/09 01:55:12;;;;;;;;;4.50;4.00;;;;;20.70;54.17;101972.38;5043239;28;45423;-88
2021/07/09 01:57:39;;;;;;;;;4.00;4.00;;;;;20.68;53.70;101979.34;5038240;28;45517;-88
2021/07/09 02:00:08;;;;;;;;;6.00;6.00;;;;;20.65;54.43;101978.41;5037411;28;45798;-87
2021/07/09 02:02:34;;;;;;;;;6.25;5.75;;;;;20.66;54.56;101980.19;5037096;28;45266;-89
2021/07/09 02:05:00;;;;;;;;;5.75;5.75;;;;;20.65;54.06;101978.41;5037305;28;45237;-90
2021/07/09 02:07:26;;;;;;;;;9.25;5.75;;;;;20.65;54.38;101979.31;5036435;28;45396;-90
2021/07/09 02:09:57;;;;;;;;;5.75;5.50;;;;;20.63;53.73;101973.09;5018933;28;46040;-89
2021/07/09 02:12:25;;;;;;;;;9.00;7.00;;;;;20.63;54.05;101969.56;5037770;28;45351;-89
2021/07/09 02:14:51;;;;;;;;;6.00;5.00;;;;;20.56;54.15;101972.09;5036540;28;45205;-85
2021/07/09 02:17:18;;;;;;;;;7.25;5.75;;;;;20.54;54.21;101971.16;5036327;28;46459;-90
2021/07/09 02:19:45;;;;;;;;;6.25;5.50;;;;;20.53;54.85;101968.50;5038211;28;45838;-87
2021/07/09 02:22:13;;;;;;;;;8.00;6.50;;;;;20.52;54.81;101964.09;5023939;28;45490;-88
2021/07/09 02:24:41;;;;;;;;;7.50;6.50;;;;;20.52;55.06;101969.34;5041550;28;45253;-87
2021/07/09 02:27:07;;;;;;;;;8.25;6.25;;;;;20.50;54.71;101968.41;5040835;28;46191;-87
2021/07/09 02:29:34;;;;;;;;;7.00;5.50;;;;;20.53;54.99;101974.63;5041515;28;45393;-84
2021/07/09 02:32:02;;;;;;;;;7.25;6.25;;;;;20.53;54.70;101974.63;5047588;28;45419;-82
2021/07/09 02:34:29;;;;;;;;;5.25;5.00;;;;;20.53;54.29;101963.25;5055705;28;44839;-89
2021/07/09 02:36:55;;;;;;;;;9.75;7.25;;;;;20.49;54.95;101966.66;5029497;28;47837;-88
2021/07/09 02:39:22;;;;;;;;;6.00;5.00;;;;;20.49;54.65;101964.91;5038881;28;45567;-88
2021/07/09 02:41:48;;;;;;;;;7.50;6.00;;;;;20.50;55.03;101968.41;5039449;28;45415;-88
2021/07/09 02:44:14;;;;;;;;;6.50;6.00;;;;;20.46;54.52;101962.22;5039736;28;45501;-86
2021/07/09 02:46:40;;;;;;;;;7.75;6.25;;;;;20.44;55.11;101961.28;5039225;28;45461;-87
2021/07/09 02:49:05;;;;;;;;;7.75;5.50;;;;;20.38;55.17;101951.50;5039467;28;45340;-87
2021/07/09 02:51:31;;;;;;;;;6.00;6.00;;;;;20.40;55.20;101957.69;5040024;28;45310;-80
2021/07/09 02:53:56;;;;;;;;;6.25;5.25;;;;;20.37;55.38;101952.34;5039671;28;45365;-83
2021/07/09 02:56:22;;;;;;;;;6.25;4.50;;;;;20.38;55.08;101955.91;5040039;28;46224;-87
2021/07/09 02:58:47;;;;;;;;;7.25;5.50;;;;;20.38;55.17;101956.78;5022466;28;45417;-88
2021/07/09 03:01:13;;;;;;;;;7.75;6.25;;;;;20.38;55.42;101954.13;5040360;28;45313;-85
2021/07/09 03:03:39;;;;;;;;;6.00;6.00;;;;;20.36;55.41;101958.47;5042018;28;45305;-87
2021/07/09 03:06:04;;;;;;;;;6.50;5.75;;;;;20.28;55.19;101946.91;5041850;28;45537;-80
2021/07/09 03:08:30;;;;;;;;;6.00;6.00;;;;;20.24;55.38;101947.69;5041662;28;45318;-86
2021/07/09 03:10:56;;;;;;;;;6.75;6.75;;;;;20.22;55.69;101945.00;5043023;28;45289;-87
2021/07/09 03:13:22;;;;;;;;;6.50;6.00;;;;;20.17;55.92;101945.75;5045018;28;45328;-88
2021/07/09 03:15:47;;;;;;;;;6.00;6.00;;;;;20.15;56.04;101942.19;5040440;28;45648;-86
2021/07/09 03:18:13;;;;;;;;;6.50;5.25;;;;;20.12;55.67;101936.88;5040961;28;45435;-87
2021/07/09 03:20:39;;;;;;;;;7.25;5.00;;;;;20.12;55.92;101945.66;5039965;28;45360;-88
2021/07/09 03:23:05;;;;;;;;;7.00;4.75;;;;;20.11;55.57;101943.88;5021244;28;45423;-79
2021/07/09 03:25:30;;;;;;;;;6.25;6.25;;;;;20.08;56.60;101941.19;5039220;28;45579;-83
2021/07/09 03:27:56;;;;;;;;;5.00;3.75;;;;;20.09;56.66;101941.22;5038784;28;45360;-87
2021/07/09 03:30:23;;;;;;;;;7.50;7.25;;;;;20.07;56.18;101940.28;5041399;28;45254;-88
2021/07/09 03:32:50;;;;;;;;;7.00;5.50;;;;;20.05;56.05;101938.47;5024943;28;45341;-91
2021/07/09 03:35:16;;;;;;;;;8.50;8.50;;;;;20.02;56.48;101939.31;5041985;28;45389;-88
2021/07/09 03:37:41;;;;;;;;;5.00;5.00;;;;;20.05;56.28;101949.88;5044786;28;45191;-88
2021/07/09 03:40:09;;;;;;;;;6.00;5.50;;;;;20.02;56.73;101952.44;5039426;28;45486;-89
2021/07/09 03:42:35;;;;;;;;;7.25;6.75;;;;;19.99;56.46;101946.22;5038872;28;45400;-81
2021/07/09 03:45:00;;;;;;;;;8.75;6.25;;;;;19.95;56.74;101940.00;5037755;28;47967;-89
2021/07/09 03:47:26;;;;;;;;;6.50;6.50;;;;;19.92;56.97;101934.69;5040002;28;45394;-89
2021/07/09 03:49:52;;;;;;;;;7.00;7.00;;;;;19.92;57.27;101939.94;5040536;28;45277;-88
2021/07/09 03:52:17;;;;;;;;;10.50;7.75;;;;;19.87;56.83;101939.78;5044131;28;45552;-89
2021/07/09 03:54:43;;;;;;;;;8.75;8.75;;;;;19.83;57.37;101924.78;5037934;28;46508;-89
2021/07/09 03:57:09;;;;;;;;;9.50;7.25;;;;;19.84;57.21;101938.81;5037484;28;45277;-88
2021/07/09 03:59:35;;;;;;;;;9.25;6.75;;;;;19.84;56.92;101946.69;5038278;28;45237;-80
2021/07/09 04:02:00;;;;;;;;;7.00;6.50;;;;;19.85;57.04;101941.50;5038601;28;45561;-90
2021/07/09 04:04:26;;;;;;;;;9.00;8.50;;;;;19.84;57.52;101942.34;5040084;28;45354;-89
2021/07/09 04:06:51;;;;;;;;;7.50;6.75;;;;;19.82;57.38;101944.03;5039769;28;45233;-89
2021/07/09 04:09:17;;;;;;;;;9.00;6.50;;;;;19.83;57.54;101944.91;5037353;28;45258;-88
2021/07/09 04:11:43;;;;;;;;;8.75;7.50;;;;;19.79;57.00;101944.84;5039831;28;45351;-85
2021/07/09 04:14:08;;;;;;;;;8.75;8.25;;;;;19.75;57.58;101939.50;5053399;28;46234;-83
2021/07/09 04:16:34;;;;;;;;;11.00;10.00;;;;;19.68;57.88;101933.19;5048922;28;45335;-86
2021/07/09 04:19:00;;;;;;;;;6.00;4.75;;;;;19.70;57.70;101943.72;5037521;28;45364;-86
2021/07/09 04:21:25;;;;;;;;;8.75;8.75;;;;;19.69;57.34;101934.97;5037368;28;45553;-86
2021/07/09 04:23:51;;;;;;;;;6.00;6.00;;;;;19.70;57.95;101934.13;4988690;28;1352541;-85
2021/07/09 04:26:16;;;;;;;;;7.75;7.75;;;;;19.69;58.13;101932.34;5038416;28;45419;-89
2021/07/09 04:28:42;;;;;;;;;6.50;6.25;;;;;19.74;57.59;101935.09;5047819;28;45249;-90
2021/07/09 04:31:08;;;;;;;;;9.75;7.00;;;;;19.74;57.87;101945.59;5054805;28;45782;-90
2021/07/09 04:33:33;;;;;;;;;10.00;8.00;;;;;19.77;57.55;101948.28;5058567;28;45384;-89
2021/07/09 04:35:59;;;;;;;;;10.00;8.25;;;;;19.82;57.69;101949.28;5046628;28;45220;-90
2021/07/09 04:38:24;;;;;;;;;6.25;6.25;;;;;19.82;57.33;101948.38;5044854;28;45265;-90
2021/07/09 04:40:50;;;;;;;;;8.50;8.50;;;;;19.86;58.00;101945.94;5052524;28;45317;-86
2021/07/09 04:43:16;;;;;;;;;9.50;8.50;;;;;19.87;57.46;101952.06;5047116;28;45390;-88
2021/07/09 04:45:41;;;;;;;;;13.25;8.00;;;;;19.86;57.28;101951.19;5042772;28;45237;-88
2021/07/09 04:48:07;;;;;;;;;11.75;9.25;;;;;19.87;57.46;101958.19;5040602;28;45495;-87
2021/07/09 04:50:34;;;;;;;;;10.00;7.50;;;;;19.89;57.76;101951.25;5045772;28;45387;-90
2021/07/09 04:52:59;;;;;;;;;9.00;7.75;;;;;19.97;57.55;101961.94;5045436;28;46237;-89
2021/07/09 04:55:25;;;;;;;;;10.25;6.75;;;;;20.02;57.42;101959.44;5046550;28;45317;-88
2021/07/09 04:57:51;;;;;;;;;7.25;6.50;;;;;20.06;57.05;101961.28;5044405;28;45293;-91
2021/07/09 05:00:17;;;;;;;;;8.75;7.50;;;;;20.06;56.95;101951.66;5041141;28;45640;-89
2021/07/09 05:02:42;;;;;;;;;8.00;7.75;;;;;20.08;57.20;101964.84;5055774;28;46791;-87
2021/07/09 05:05:10;;;;;;;;;7.25;7.25;;;;;20.12;57.00;101963.19;5040308;28;45174;-89
2021/07/09 05:07:37;;;;;;;;;5.75;5.75;;;;;20.14;57.13;101961.50;5044555;28;45188;-84
2021/07/09 05:10:04;;;;;;;;;10.00;8.25;;;;;20.15;56.94;101964.13;5028211;28;45339;-87
2021/07/09 05:12:30;;;;;;;;;9.00;8.75;;;;;20.15;57.45;101966.78;5057528;28;46817;-90
2021/07/09 05:14:55;;;;;;;;;6.75;5.75;;;;;20.16;57.00;101963.28;5039006;28;45272;-91
2021/07/09 05:17:21;;;;;;;;;9.50;9.50;;;;;20.17;57.64;101964.16;5038748;28;45417;-88
2021/07/09 05:19:46;;;;;;;;;11.50;9.75;;;;;20.20;57.09;101966.88;5041662;28;45316;-90
2021/07/09 05:22:13;;;;;;;;;9.50;6.50;;;;;20.17;57.23;101966.78;5040419;28;45409;-90
2021/07/09 05:24:39;;;;;;;;;8.00;8.00;;;;;20.18;57.46;101966.84;5041554;28;45312;-88
2021/07/09 05:27:07;;;;;;;;;9.00;8.00;;;;;20.16;57.52;101968.56;5040736;28;45202;-90
2021/07/09 05:29:33;;;;;;;;;7.00;7.00;;;;;20.15;57.15;101972.03;5040137;28;45383;-89
2021/07/09 05:31:59;;;;;;;;;10.00;10.00;;;;;20.17;57.45;101974.69;5042491;28;46219;-89
2021/07/09 05:34:24;;;;;;;;;8.25;6.25;;;;;20.16;57.07;101970.28;5025574;28;45341;-88
2021/07/09 05:36:51;;;;;;;;;9.00;8.00;;;;;20.23;57.01;101967.84;5060966;28;45481;-90
2021/07/09 05:39:17;;;;;;;;;11.25;8.00;;;;;20.21;57.18;101974.78;5039527;28;45345;-87
2021/07/09 05:41:43;;;;;;;;;12.75;8.00;;;;;20.23;57.51;101974.84;5037091;28;46166;-87
2021/07/09 05:44:12;;;;;;;;;13.25;9.25;;;;;20.19;57.43;101970.34;5021508;28;45428;-84
2021/07/09 05:46:38;;;;;;;;;8.50;6.50;;;;;20.19;57.36;101965.97;5043077;28;45344;-86
2021/07/09 05:49:03;;;;;;;;;10.50;8.00;;;;;20.17;57.24;101966.78;5043937;28;45400;-87
2021/07/09 05:51:29;;;;;;;;;8.00;8.00;;;;;20.14;57.12;101969.38;5036644;28;45601;-87
2021/07/09 05:53:55;;;;;;;;;10.00;9.50;;;;;20.17;57.55;101972.06;5037466;28;45456;-89
2021/07/09 05:56:21;;;;;;;;;8.50;7.50;;;;;20.16;57.18;101976.44;5033461;28;45282;-87
2021/07/09 05:58:46;;;;;;;;;8.75;8.00;;;;;20.23;57.21;101988.00;5047360;28;45610;-90
2021/07/09 06:01:12;;;;;;;;;10.75;10.75;;;;;20.26;57.49;101986.31;5038491;28;45555;-86
2021/07/09 06:03:38;;;;;;;;;9.00;9.00;;;;;20.30;57.02;101983.78;5048784;28;44705;-81
2021/07/09 06:06:03;;;;;;;;;7.75;7.25;;;;;20.35;57.37;101980.41;5038535;28;45375;-85
2021/07/09 06:08:29;;;;;;;;;10.75;9.75;;;;;20.39;56.70;101979.59;5050537;28;45242;-89
2021/07/09 06:10:56;;;;;;;;;10.25;8.50;;;;;20.43;57.11;101983.19;5021170;28;47947;-88
2021/07/09 06:13:22;;;;;;;;;9.75;8.00;;;;;20.50;56.71;101984.22;5036063;28;45361;-87
2021/07/09 06:15:48;;;;;;;;;9.25;8.75;;;;;20.54;57.01;101988.69;5035903;28;45476;-88
2021/07/09 06:18:13;;;;;;;;;10.25;8.50;;;;;20.53;56.93;101985.16;5019038;28;45348;-87
2021/07/09 06:20:39;;;;;;;;;13.50;10.00;;;;;20.59;56.35;101986.16;5016007;28;46904;-86
2021/07/09 06:23:05;;;;;;;;;8.00;8.00;;;;;20.63;56.19;101994.16;5036777;28;44802;-86
2021/07/09 06:25:31;;;;;;;;;11.25;8.00;;;;;20.70;56.13;101990.78;5038684;28;45414;-83
2021/07/09 06:27:57;;;;;;;;;11.50;8.00;;;;;20.72;56.34;101994.34;5040004;28;45517;-84
2021/07/09 06:30:23;;;;;;;;;11.25;9.00;;;;;20.77;56.09;101998.88;5036153;28;45301;-82
2021/07/09 06:32:48;;;;;;;;;10.25;10.25;;;;;20.76;56.28;101989.19;5015818;28;45367;-85
2021/07/09 06:35:15;;;;;;;;;8.25;6.75;;;;;20.84;56.38;102003.41;5036117;28;45497;-88
2021/07/09 06:37:40;;;;;;;;;9.75;8.25;;;;;20.86;55.87;101991.19;5035055;28;45349;-83
2021/07/09 06:40:08;;;;;;;;;8.50;8.00;;;;;20.88;55.74;101995.59;5035881;28;45339;-92
2021/07/09 06:42:34;;;;;;;;;8.25;6.00;;;;;20.90;55.15;102000.88;5036510;28;45386;-88
2021/07/09 06:45:00;;;;;;;;;13.75;9.25;;;;;20.88;55.45;101995.59;5035891;28;45463;-87
2021/07/09 06:47:29;;;;;;;;;9.50;8.75;;;;;20.90;55.09;101998.25;5018039;28;45340;-81
2021/07/09 06:49:54;;;;;;;;;11.25;10.25;;;;;20.92;54.82;101999.19;5032136;28;46170;-82
2021/07/09 06:52:20;;;;;;;;;12.00;11.75;;;;;20.95;55.16;102007.16;5042162;28;45384;-82
2021/07/09 06:54:46;;;;;;;;;11.50;9.50;;;;;20.96;55.12;102008.94;5034741;28;45477;-82
2021/07/09 06:57:11;;;;;;;;;10.25;9.50;;;;;20.95;54.57;102001.88;5035157;28;45313;-82
2021/07/09 06:59:37;;;;;;;;;12.50;9.25;;;;;21.01;54.62;102012.53;5034267;28;46390;-81
2021/07/09 07:02:03;;;;;;;;;11.00;11.00;;;;;21.07;54.42;102006.50;5034969;28;45531;-81
2021/07/09 07:04:28;;;;;;;;;10.50;9.00;;;;;21.13;54.22;102006.66;5034472;28;45426;-80
2021/07/09 07:06:54;;;;;;;;;9.50;9.00;;;;;21.15;54.28;102015.47;5036852;28;45490;-82
2021/07/09 07:09:20;;;;;;;;;8.25;6.75;;;;;21.15;54.68;102017.22;5038367;28;45556;-81
2021/07/09 07:11:46;;;;;;;;;9.50;9.25;;;;;21.15;54.74;102015.47;5037964;28;45970;-81
2021/07/09 07:14:11;;;;;;;;;9.50;8.00;;;;;21.17;54.62;102008.47;5038514;28;45343;-81
2021/07/09 07:16:37;;;;;;;;;9.75;9.75;;;;;21.19;53.97;102014.66;5020425;28;45606;-81
2021/07/09 07:19:03;;;;;;;;;7.50;7.50;;;;;21.22;54.30;102012.94;5038191;28;45676;-81
2021/07/09 07:21:29;;;;;;;;;7.25;6.50;;;;;21.26;53.91;102009.53;5038044;28;45241;-80
2021/07/09 07:23:54;;;;;;;;;9.00;9.00;;;;;21.31;53.56;102003.50;5037349;28;45484;-81
2021/07/09 07:26:20;;;;;;;;;10.25;9.00;;;;;21.37;54.03;102015.91;5037699;28;45342;-81
2021/07/09 07:28:45;;;;;;;;;8.00;7.25;;;;;21.43;53.21;102025.66;5037868;28;46181;-81
2021/07/09 07:31:12;;;;;;;;;1.75;1.50;;;;;21.46;52.98;102010.81;5037441;28;45333;-80
2021/07/09 07:33:39;;;;;;;;;9.50;8.25;;;;;21.50;52.83;102011.75;5038015;28;45391;-81
2021/07/09 07:36:05;;;;;;;;;7.75;7.75;;;;;21.54;52.83;102015.31;5038310;28;45411;-82
2021/07/09 07:38:30;;;;;;;;;12.00;8.25;;;;;21.60;53.11;102016.34;5039892;28;46351;-82
2021/07/09 07:40:56;;;;;;;;;8.00;7.50;;;;;21.63;52.67;102005.88;5037882;28;45526;-86
2021/07/09 07:43:21;;;;;;;;;13.00;9.50;;;;;21.69;52.54;102009.47;5039310;28;45431;-83
2021/07/09 07:45:47;;;;;;;;;7.75;6.75;;;;;21.77;52.30;102018.41;5035142;28;45419;-83
2021/07/09 07:48:14;;;;;;;;;9.25;8.25;;;;;21.80;51.93;102013.19;5031580;28;47540;-81
2021/07/09 07:50:42;;;;;;;;;6.75;6.25;;;;;21.85;51.09;102011.53;5036591;28;45645;-83
2021/07/09 07:53:07;;;;;;;;;5.00;4.00;;;;;21.90;51.19;102014.25;5036909;28;45516;-82
2021/07/09 07:55:35;;;;;;;;;4.75;4.75;;;;;21.92;50.21;102007.25;5036263;28;45498;-81
2021/07/09 07:58:00;;;;;;;;;4.00;4.00;;;;;21.93;50.08;102004.63;5037542;28;45632;-82
2021/07/09 08:00:26;;;;;;;;;5.50;4.25;;;;;21.94;49.73;102011.69;5018990;28;45273;-82
2021/07/09 08:02:52;;;;;;;;;5.25;4.00;;;;;21.92;50.04;102004.63;5017898;28;45577;-80
2021/07/09 08:05:18;;;;;;;;;5.50;4.75;;;;;22.01;50.11;102014.41;5037528;28;45611;-81
2021/07/09 08:07:44;;;;;;;;;6.50;6.00;;;;;22.00;49.79;102005.63;5036799;28;45321;-81
2021/07/09 08:10:10;;;;;;;;;8.00;6.00;;;;;22.00;50.13;102012.63;5037488;28;45245;-82
2021/07/09 08:12:35;;;;;;;;;6.25;6.25;;;;;22.02;49.53;102009.19;5036108;28;45604;-81
2021/07/09 08:15:03;;;;;;;;;10.50;7.75;;;;;22.00;50.05;102007.34;5037088;28;46071;-81
2021/07/09 08:17:29;;;;;;;;;10.00;8.00;;;;;22.00;50.11;102002.09;5033105;28;47612;-81
2021/07/09 08:19:54;;;;;;;;;9.00;8.00;;;;;21.97;50.00;102002.94;5036783;28;45399;-83
2021/07/09 08:22:20;;;;;;;;;9.50;7.25;;;;;21.90;50.23;102001.94;5036769;28;45356;-79
2021/07/09 08:24:46;;;;;;;;;9.50;8.50;;;;;21.89;50.53;102000.16;5034652;28;45486;-82
2021/07/09 08:27:11;;;;;;;;;8.00;7.00;;;;;21.90;50.90;101999.31;5036891;28;45380;-80
2021/07/09 08:29:37;;;;;;;;;9.00;9.00;;;;;21.88;50.57;101993.09;5036723;28;45380;-81
2021/07/09 08:32:03;;;;;;;;;8.00;5.75;;;;;21.87;51.17;101996.59;5036438;28;45333;-79
2021/07/09 08:34:29;;;;;;;;;6.50;6.50;;;;;21.85;50.88;101987.81;5036737;28;45446;-81
2021/07/09 08:36:54;;;;;;;;;8.75;6.00;;;;;21.85;50.63;101994.81;5036390;28;45548;-80
2021/07/09 08:39:20;;;;;;;;;7.50;6.25;;;;;21.90;50.32;101988.75;5036993;28;45418;-79
2021/07/09 08:41:48;;;;;;;;;6.75;5.75;;;;;21.97;50.34;101987.09;5036187;28;45521;-81
2021/07/09 08:44:14;;;;;;;;;7.75;5.75;;;;;22.03;49.89;101995.09;5036596;28;45512;-78
2021/07/09 08:46:41;;;;;;;;;6.00;5.25;;;;;22.06;49.63;101983.75;5036293;28;46521;-82
2021/07/09 08:49:17;;;;;;;;;9.75;8.00;;;;;22.15;49.29;101988.25;5035017;28;45400;-82
2021/07/09 08:51:44;;;;;;;;;6.25;6.25;;;;;22.18;49.75;101989.22;5033887;28;45380;-82
2021/07/09 08:54:15;;;;;;;;;6.50;6.25;;;;;22.22;49.19;101982.22;5037458;28;45479;-81
2021/07/09 08:56:42;;;;;;;;;10.00;7.00;;;;;22.27;48.95;101978.81;5036966;28;45500;-83
2021/07/09 08:59:08;;;;;;;;;8.00;6.75;;;;;22.37;48.18;101986.84;5038568;28;45761;-82
2021/07/09 09:01:58;;;;;;;;;5.00;3.75;;;;;22.37;48.51;101987.72;5039563;28;45442;-83
2021/07/09 09:04:29;;;;;;;;;5.75;5.75;;;;;22.41;48.45;101983.41;5035867;28;45902;-78
2021/07/09 09:07:04;;;;;;;;;8.00;7.00;;;;;22.41;48.31;101981.66;5039269;28;46461;-83
2021/07/09 09:09:31;;;;;;;;;5.00;5.00;;;;;22.46;48.56;101983.50;5039250;28;45233;-81
2021/07/09 09:12:04;;;;;;;;;8.00;5.00;;;;;22.51;48.61;101968.59;5039158;28;45253;-80
2021/07/09 09:14:32;;;;;;;;;9.00;5.00;;;;;22.53;48.22;101967.75;5041933;28;45430;-80
2021/07/09 09:16:58;;;;;;;;;9.00;7.50;;;;;22.61;48.06;101970.50;5038549;28;46438;-81
2021/07/09 09:19:23;;;;;;;;;10.00;7.75;;;;;22.66;48.66;101970.56;5037721;28;45433;-82
2021/07/09 09:22:11;;;;;;;;;8.25;7.25;;;;;22.71;48.24;101966.22;5019384;28;45563;-84
2021/07/09 09:24:38;;;;;;;;;11.25;9.50;;;;;22.73;48.06;101969.78;5051134;28;45417;-83
2021/07/09 09:27:19;;;;;;;;;8.75;7.00;;;;;22.79;48.20;101974.22;5043781;28;45593;-81
2021/07/09 09:29:45;;;;;;;;;5.75;4.50;;;;;22.83;48.10;101966.38;5035795;28;45860;-80
2021/07/09 09:32:13;;;;;;;;;7.75;6.75;;;;;22.91;47.99;101971.75;5036567;28;45502;-81
2021/07/09 09:34:44;;;;;;;;;10.25;6.25;;;;;22.97;47.36;101969.19;5014164;28;45514;-83
2021/07/09 09:37:11;;;;;;;;;8.50;7.00;;;;;23.07;47.53;101970.16;5036373;28;45462;-84
2021/07/09 09:39:48;;;;;;;;;9.00;6.50;;;;;23.14;47.73;101973.78;5035857;28;45920;-82
2021/07/09 09:42:23;;;;;;;;;6.50;5.75;;;;;23.16;47.85;101961.47;5040338;28;45202;-81
2021/07/09 09:44:49;;;;;;;;;6.25;6.25;;;;;23.22;46.76;101961.56;5036425;28;45443;-84
2021/07/09 09:47:27;;;;;;;;;6.00;6.00;;;;;23.23;47.18;101963.31;5035950;28;46444;-84
2021/07/09 09:49:58;;;;;;;;;6.50;5.75;;;;;23.29;47.53;101966.06;5036125;28;45815;-85
2021/07/09 09:52:45;;;;;;;;;5.75;5.00;;;;;23.32;47.47;101973.13;5034725;28;45452;-86
2021/07/09 09:55:13;;;;;;;;;4.25;4.25;;;;;23.35;46.96;101970.50;5030630;28;45428;-85
2021/07/09 09:57:41;;;;;;;;;7.50;6.25;;;;;23.33;46.65;101972.25;5032117;28;45444;-86
2021/07/09 10:00:09;;;;;;;;;4.00;4.00;;;;;23.27;46.87;101969.56;5035660;28;45612;-85
2021/07/09 10:02:36;;;;;;;;;4.50;4.50;;;;;23.25;46.79;101973.94;5037902;28;45420;-85
2021/07/09 10:05:05;;;;;;;;;8.00;6.00;;;;;23.29;46.55;101967.78;5036194;28;45364;-81
2021/07/09 10:07:36;;;;;;;;;6.75;6.00;;;;;23.30;46.16;101973.13;5034874;28;45750;-80
2021/07/09 10:10:04;;;;;;;;;7.00;6.75;;;;;23.29;46.46;101960.78;5036304;28;45648;-83
2021/07/09 10:12:31;;;;;;;;;7.50;6.50;;;;;23.29;46.27;101958.13;5038235;28;45426;-87
2021/07/09 10:14:58;;;;;;;;;5.25;5.25;;;;;23.31;46.09;101956.38;5019477;28;45451;-82
2021/07/09 10:17:27;;;;;;;;;7.75;7.50;;;;;23.31;46.25;101961.69;5033331;28;45673;-85
2021/07/09 10:19:58;;;;;;;;;6.25;6.00;;;;;23.33;46.18;101959.03;5036745;28;45234;-86
2021/07/09 10:22:24;;;;;;;;;8.00;8.00;;;;;23.32;45.84;101949.34;5040575;28;45361;-88
2021/07/09 10:24:52;;;;;;;;;6.00;6.00;;;;;23.29;46.27;101952.84;5036011;28;45613;-86
2021/07/09 10:27:27;;;;;;;;;9.00;7.25;;;;;23.31;46.41;101961.69;5036177;28;46403;-84
2021/07/09 10:29:54;;;;;;;;;7.75;6.50;;;;;23.24;46.35;101964.22;5043602;28;45987;-87
2021/07/09 10:32:43;;;;;;;;;6.00;6.00;;;;;23.11;46.59;101963.19;5050777;28;45348;-87
2021/07/09 10:35:11;;;;;;;;;7.75;6.00;;;;;22.99;47.11;101964.81;5035834;28;45466;-89
2021/07/09 10:37:37;;;;;;;;;5.25;5.25;;;;;22.91;47.39;101962.94;5037212;28;45902;-83
2021/07/09 10:40:12;;;;;;;;;9.00;7.75;;;;;22.94;47.99;101963.00;5037413;28;45412;-91
2021/07/09 10:42:40;;;;;;;;;6.75;5.00;;;;;23.00;47.74;101963.91;5039884;28;45623;-83
2021/07/09 10:45:12;;;;;;;;;13.50;12.50;;;;;23.11;47.83;101955.25;5019736;28;45567;-84
2021/07/09 10:47:55;;;;;;;;;7.00;6.25;;;;;23.22;46.57;101956.25;5040406;28;45803;-87
2021/07/09 10:50:26;;;;;;;;;7.25;7.25;;;;;23.31;46.58;101952.84;5020780;28;45780;-85
2021/07/09 10:52:59;;;;;;;;;8.00;7.00;;;;;23.36;46.76;101961.72;5038815;28;45459;-83
2021/07/09 10:55:26;;;;;;;;;6.00;5.25;;;;;23.36;46.58;101959.06;5039521;28;45377;-84
2021/07/09 10:58:07;;;;;;;;;7.25;6.00;;;;;23.34;46.28;101959.03;5041534;28;46213;-82
2021/07/09 11:00:53;;;;;;;;;9.00;8.00;;;;;23.35;46.89;101954.66;5038927;28;45381;-84
2021/07/09 11:03:35;;;;;;;;;5.25;4.50;;;;;23.37;46.39;101957.31;5042941;28;45351;-82
2021/07/09 11:06:06;;;;;;;;;7.50;4.25;;;;;23.37;46.35;101950.28;5041970;28;45302;-84
2021/07/09 11:08:32;;;;;;;;;7.00;6.00;;;;;23.42;46.16;101947.69;5040670;28;45281;-85
2021/07/09 11:11:13;;;;;;;;;6.25;6.25;;;;;23.51;45.92;101937.19;5042335;28;45437;-84
2021/07/09 11:13:44;;;;;;;;;6.75;6.00;;;;;23.54;45.67;101939.84;5064335;28;45439;-90
2021/07/09 11:16:25;;;;;;;;;7.75;7.75;;;;;23.55;45.84;101935.44;5037231;28;45536;-81
2021/07/09 11:19:00;;;;;;;;;7.00;5.75;;;;;23.55;46.37;101933.69;5034363;28;46609;-82
2021/07/09 11:21:32;;;;;;;;;8.00;6.75;;;;;23.61;46.48;101925.81;5032907;28;45509;-79
2021/07/09 11:24:08;;;;;;;;;9.75;8.00;;;;;23.68;46.29;101928.50;5036518;28;45415;-80
2021/07/09 11:26:42;;;;;;;;;7.50;7.00;;;;;23.74;46.33;101928.56;5037447;28;45586;-78